createdAt,value
2023-01-19T00:00:55.879Z,-3.90
2023-01-19T00:06:18.009Z,-3.90
2023-01-19T00:11:39.897Z,-4.00
2023-01-19T00:17:01.989Z,-4.10
2023-01-19T00:22:23.419Z,-4.20
2023-01-19T00:27:49.488Z,-4.30
2023-01-19T00:33:14.614Z,-4.40
2023-01-19T00:38:36.249Z,-4.60
2023-01-19T00:43:57.702Z,-4.70
2023-01-19T00:49:19.280Z,-4.70
2023-01-19T00:54:40.756Z,-4.80
2023-01-19T01:00:02.114Z,-5.00
2023-01-19T01:05:36.841Z,-5.00
2023-01-19T01:11:21.913Z,-5.10
2023-01-19T01:22:47.606Z,-5.20
2023-01-19T01:28:26.533Z,-5.50
2023-01-19T01:33:54.706Z,-5.60
2023-01-19T01:39:17.221Z,-5.60
2023-01-19T01:44:53.085Z,-5.80
2023-01-19T01:50:19.058Z,-5.70
2023-01-19T01:56:03.062Z,-5.80
2023-01-19T02:01:56.200Z,-5.80
2023-01-19T02:08:06.003Z,-5.80
2023-01-19T02:13:56.700Z,-5.70
2023-01-19T02:20:00.179Z,-5.70
2023-01-19T02:25:28.026Z,-5.60
2023-01-19T02:31:05.111Z,-5.50
2023-01-19T02:37:15.084Z,-5.50
2023-01-19T02:42:57.920Z,-5.40
2023-01-19T02:48:21.679Z,-5.50
2023-01-19T02:54:00.201Z,-5.40
2023-01-19T02:59:23.545Z,-5.50
2023-01-19T03:05:14.444Z,-5.40
2023-01-19T03:11:21.752Z,-5.50
2023-01-19T03:17:08.547Z,-5.50
2023-01-19T03:22:49.080Z,-5.50
2023-01-19T03:28:33.192Z,-5.50
2023-01-19T03:34:07.388Z,-5.50
2023-01-19T03:39:30.266Z,-5.40
2023-01-19T03:44:56.634Z,-5.50
2023-01-19T03:50:28.434Z,-5.40
2023-01-19T03:55:54.952Z,-5.30
2023-01-19T04:01:33.306Z,-5.30
2023-01-19T04:07:08.605Z,-5.40
2023-01-19T04:12:40.745Z,-5.40
2023-01-19T04:18:21.054Z,-5.50
2023-01-19T04:23:58.941Z,-5.50
2023-01-19T04:29:21.126Z,-5.60
2023-01-19T04:34:42.611Z,-5.60
2023-01-19T04:40:03.825Z,-5.60
2023-01-19T04:45:28.595Z,-5.70
2023-01-19T04:50:56.382Z,-5.70
2023-01-19T04:56:30.045Z,-5.70
2023-01-19T05:02:03.825Z,-5.70
2023-01-19T05:07:38.606Z,-5.70
2023-01-19T05:13:06.998Z,-5.70
2023-01-19T05:18:36.458Z,-5.70
2023-01-19T05:24:04.831Z,-5.70
2023-01-19T05:29:27.135Z,-5.50
2023-01-19T05:34:48.517Z,-5.40
2023-01-19T05:40:10.999Z,-5.40
2023-01-19T05:45:32.358Z,-5.40
2023-01-19T05:51:23.881Z,-5.40
2023-01-19T05:57:12.402Z,-5.50
2023-01-19T06:03:06.319Z,-5.60
2023-01-19T06:08:33.592Z,-5.50
2023-01-19T06:14:00.820Z,-5.60
2023-01-19T06:19:22.335Z,-5.60
2023-01-19T06:24:43.822Z,-5.50
2023-01-19T06:30:06.598Z,-5.50
2023-01-19T06:35:30.950Z,-5.40
2023-01-19T06:41:19.163Z,-5.40
2023-01-19T06:47:16.008Z,-5.40
2023-01-19T06:53:02.883Z,-5.40
2023-01-19T06:58:43.757Z,-5.30
2023-01-19T07:04:14.114Z,-5.30
2023-01-19T07:09:35.493Z,-5.30
2023-01-19T07:14:56.983Z,-5.20
2023-01-19T07:20:19.723Z,-5.20
2023-01-19T07:25:40.844Z,-5.10
2023-01-19T07:31:28.881Z,-4.90
2023-01-19T07:37:16.325Z,-4.80
2023-01-19T07:42:55.304Z,-4.80
2023-01-19T07:48:38.376Z,-4.70
2023-01-19T07:54:12.079Z,-4.60
2023-01-19T07:59:34.377Z,-4.50
2023-01-19T08:05:11.227Z,-4.30
2023-01-19T08:10:40.366Z,-4.20
2023-01-19T08:16:15.664Z,-4.10
2023-01-19T08:21:39.462Z,-4.00
2023-01-19T08:27:19.504Z,-3.90
2023-01-19T08:33:30.068Z,-3.90
2023-01-19T08:39:03.932Z,-3.70
2023-01-19T08:44:25.389Z,-3.60
2023-01-19T08:49:46.911Z,-3.50
2023-01-19T08:55:09.337Z,-3.30
2023-01-19T09:00:31.884Z,-3.00
2023-01-19T09:06:12.883Z,-2.90
2023-01-19T09:11:50.188Z,-2.80
2023-01-19T09:17:25.734Z,-2.60
2023-01-19T09:23:03.318Z,-2.40
2023-01-19T09:28:37.055Z,-2.00
2023-01-19T09:34:06.144Z,-1.80
2023-01-19T09:39:28.935Z,-1.50
2023-01-19T09:44:53.399Z,-1.40
2023-01-19T09:50:31.982Z,-1.20
2023-01-19T09:55:56.769Z,-1.00
2023-01-19T10:07:44.424Z,-0.50
2023-01-19T10:13:45.382Z,-0.30
2023-01-19T10:19:38.236Z,0.10
2023-01-19T10:25:14.414Z,0.30
2023-01-19T10:30:36.155Z,0.50
2023-01-19T10:36:27.033Z,0.50
2023-01-19T10:42:11.165Z,0.70
2023-01-19T10:48:01.800Z,1.00
2023-01-19T10:53:39.966Z,0.50
2023-01-19T10:59:09.430Z,1.00
2023-01-19T11:04:50.295Z,0.80
2023-01-19T11:10:34.745Z,1.00
2023-01-19T11:16:36.827Z,0.70
2023-01-19T11:22:48.902Z,0.80
2023-01-19T11:28:49.170Z,1.00
2023-01-19T11:34:31.432Z,0.90
2023-01-19T11:39:58.398Z,1.10
2023-01-19T11:45:20.391Z,1.20
2023-01-19T11:50:57.270Z,1.30
2023-01-19T11:56:30.279Z,1.30
2023-01-19T12:02:31.726Z,1.00
2023-01-19T12:08:05.500Z,0.70
2023-01-19T12:13:31.976Z,0.40
2023-01-19T12:19:20.286Z,0.40
2023-01-19T12:24:54.772Z,-0.20
2023-01-19T12:30:29.745Z,-0.20
2023-01-19T12:36:34.947Z,-0.30
2023-01-19T12:42:29.591Z,0.20
2023-01-19T12:47:58.860Z,0.00
2023-01-19T12:53:37.593Z,-0.20
2023-01-19T12:59:06.337Z,-0.20
2023-01-19T13:04:46.457Z,-0.20
2023-01-19T13:10:52.046Z,0.10
2023-01-19T13:16:19.802Z,0.20
2023-01-19T13:21:49.649Z,0.00
2023-01-19T13:27:20.902Z,-0.30
2023-01-19T13:32:59.883Z,-0.30
2023-01-19T13:38:39.373Z,-0.30
2023-01-19T13:44:36.299Z,-0.20
2023-01-19T13:49:58.877Z,-0.10
2023-01-19T13:55:20.913Z,-0.30
2023-01-19T14:00:46.690Z,-0.20
2023-01-19T14:06:39.131Z,-0.10
2023-01-19T14:12:32.406Z,-0.10
2023-01-19T14:18:32.483Z,-0.10
2023-01-19T14:24:18.418Z,-0.20
2023-01-19T14:29:39.898Z,-0.40
2023-01-19T14:35:04.708Z,-0.50
2023-01-19T14:40:28.947Z,-0.60
2023-01-19T14:52:09.695Z,-0.90
2023-01-19T14:57:42.221Z,-0.80
2023-01-19T15:03:13.442Z,-1.00
2023-01-19T15:08:45.331Z,-1.10
2023-01-19T15:14:15.684Z,-1.00
2023-01-19T15:19:38.561Z,-1.20
2023-01-19T15:25:00.529Z,-1.10
2023-01-19T15:30:28.026Z,-1.10
2023-01-19T15:35:57.595Z,-1.00
2023-01-19T15:41:27.764Z,-1.00
2023-01-19T15:47:21.253Z,-1.00
2023-01-19T15:52:53.687Z,-1.10
2023-01-19T15:58:23.009Z,-1.10
2023-01-19T16:04:00.679Z,-1.20
2023-01-19T16:09:27.855Z,-1.20
2023-01-19T16:14:49.652Z,-1.10
2023-01-19T16:20:14.661Z,-0.90
2023-01-19T16:25:36.042Z,-1.00
2023-01-19T16:31:26.260Z,-0.90
2023-01-19T16:37:19.214Z,-0.90
2023-01-19T16:42:56.316Z,-0.90
2023-01-19T16:48:30.767Z,-0.90
2023-01-19T16:53:54.289Z,-0.80
2023-01-19T16:59:23.479Z,-0.90
2023-01-19T17:05:05.401Z,-0.80
2023-01-19T17:10:35.792Z,-0.60
2023-01-19T17:16:27.440Z,-0.70
2023-01-19T17:22:08.628Z,-0.70
2023-01-19T17:27:49.216Z,-0.70
2023-01-19T17:33:22.260Z,-0.70
2023-01-19T17:38:54.970Z,-0.70
2023-01-19T17:44:18.107Z,-0.50
2023-01-19T17:49:39.635Z,-0.50
2023-01-19T17:55:01.296Z,-0.50
2023-01-19T18:00:23.209Z,-0.40
2023-01-19T18:06:00.707Z,-0.50
2023-01-19T18:11:30.403Z,-0.30
2023-01-19T18:17:23.174Z,-0.40
2023-01-19T18:22:51.815Z,-0.20
2023-01-19T18:28:26.375Z,-0.20
2023-01-19T18:33:57.973Z,-0.20
2023-01-19T18:39:20.039Z,-0.20
2023-01-19T18:44:41.494Z,-0.30
2023-01-19T18:50:02.917Z,-0.30
2023-01-19T18:55:29.416Z,-0.30
2023-01-19T19:00:51.429Z,-0.20
2023-01-19T19:06:34.170Z,-0.30
2023-01-19T19:12:18.733Z,-0.20
2023-01-19T19:17:59.106Z,-0.30
2023-01-19T19:23:38.744Z,-0.20
2023-01-19T19:29:08.990Z,-0.20
2023-01-19T19:34:31.518Z,-0.10
2023-01-19T19:39:53.098Z,-0.20
2023-01-19T19:45:16.426Z,-0.20
2023-01-19T19:50:38.137Z,-0.20
2023-01-19T19:56:24.564Z,-0.20
2023-01-19T20:02:00.162Z,-0.30
2023-01-19T20:07:45.712Z,-0.40
2023-01-19T20:13:09.235Z,-0.50
2023-01-19T20:18:46.124Z,-0.50
2023-01-19T20:24:16.438Z,-0.50
2023-01-19T20:29:38.220Z,-0.30
2023-01-19T20:34:59.681Z,-0.40
2023-01-19T20:40:21.270Z,-0.50
2023-01-19T20:45:42.782Z,-0.30
2023-01-19T20:51:26.717Z,-0.40
2023-01-19T20:57:17.609Z,-0.50
2023-01-19T21:03:13.563Z,-0.50
2023-01-19T21:08:50.201Z,-0.30
2023-01-19T21:14:15.415Z,-0.30
2023-01-19T21:19:36.996Z,-0.30
2023-01-19T21:24:58.547Z,-0.20
2023-01-19T21:30:19.957Z,-0.10
2023-01-19T21:35:58.010Z,-0.10
2023-01-19T21:42:02.452Z,-0.10
2023-01-19T21:53:33.055Z,-0.10
2023-01-19T21:59:07.504Z,-0.10
2023-01-19T22:04:46.029Z,-0.10
2023-01-19T22:10:11.942Z,-0.10
2023-01-19T22:15:33.178Z,-0.10
2023-01-19T22:20:55.146Z,-0.20
2023-01-19T22:26:22.170Z,0.00
2023-01-19T22:32:01.458Z,-0.20
2023-01-19T22:37:51.270Z,0.00
2023-01-19T22:43:27.840Z,-0.10
2023-01-19T22:49:01.998Z,0.00
2023-01-19T22:54:26.452Z,0.00
2023-01-19T22:59:48.072Z,-0.10
2023-01-19T23:06:03.883Z,-0.20
2023-01-19T23:11:35.698Z,-0.10
2023-01-19T23:17:18.677Z,0.00
2023-01-19T23:22:47.470Z,0.00
2023-01-19T23:28:18.935Z,0.10
2023-01-19T23:33:49.770Z,0.10
2023-01-19T23:39:20.916Z,0.10
2023-01-19T23:44:44.133Z,0.20
2023-01-19T23:50:05.955Z,0.20
2023-01-19T23:55:28.351Z,0.20
